sensor_id;sensor_type;location;lat;lon;timestamp;P1;durP1;ratioP1;P2;durP2;ratioP2
19942;SDS011;10133;50.956;17.276;2023-02-28T00:01:13;34.13;;;15.83;;
19942;SDS011;10133;50.956;17.276;2023-02-28T00:03:41;30.57;;;14.37;;
19942;SDS011;10133;50.956;17.276;2023-02-28T00:06:08;32.57;;;13.83;;
19942;SDS011;10133;50.956;17.276;2023-02-28T00:08:36;27.70;;;13.53;;
19942;SDS011;10133;50.956;17.276;2023-02-28T00:11:09;30.17;;;13.57;;
19942;SDS011;10133;50.956;17.276;2023-02-28T00:13:38;24.70;;;12.53;;
19942;SDS011;10133;50.956;17.276;2023-02-28T00:16:19;22.77;;;11.13;;
19942;SDS011;10133;50.956;17.276;2023-02-28T00:18:48;25.80;;;11.60;;
19942;SDS011;10133;50.956;17.276;2023-02-28T00:21:16;23.60;;;10.57;;
19942;SDS011;10133;50.956;17.276;2023-02-28T00:23:44;21.20;;;9.80;;
19942;SDS011;10133;50.956;17.276;2023-02-28T00:26:10;25.47;;;11.07;;
19942;SDS011;10133;50.956;17.276;2023-02-28T00:28:37;22.63;;;11.50;;
19942;SDS011;10133;50.956;17.276;2023-02-28T00:31:04;21.40;;;10.83;;
19942;SDS011;10133;50.956;17.276;2023-02-28T00:33:31;20.53;;;10.57;;
19942;SDS011;10133;50.956;17.276;2023-02-28T00:36:02;19.20;;;10.33;;
19942;SDS011;10133;50.956;17.276;2023-02-28T00:38:31;24.17;;;9.83;;
19942;SDS011;10133;50.956;17.276;2023-02-28T00:40:58;19.47;;;10.63;;
19942;SDS011;10133;50.956;17.276;2023-02-28T00:43:32;23.93;;;10.83;;
19942;SDS011;10133;50.956;17.276;2023-02-28T00:46:04;22.20;;;10.13;;
19942;SDS011;10133;50.956;17.276;2023-02-28T00:48:31;18.10;;;10.07;;
19942;SDS011;10133;50.956;17.276;2023-02-28T00:50:59;20.87;;;10.30;;
19942;SDS011;10133;50.956;17.276;2023-02-28T00:53:26;24.70;;;10.63;;
19942;SDS011;10133;50.956;17.276;2023-02-28T00:55:53;25.70;;;11.53;;
19942;SDS011;10133;50.956;17.276;2023-02-28T00:58:20;22.10;;;10.07;;
19942;SDS011;10133;50.956;17.276;2023-02-28T01:00:47;21.23;;;10.70;;
19942;SDS011;10133;50.956;17.276;2023-02-28T01:03:18;23.80;;;11.87;;
19942;SDS011;10133;50.956;17.276;2023-02-28T01:05:46;22.30;;;12.23;;
19942;SDS011;10133;50.956;17.276;2023-02-28T01:08:13;20.47;;;11.60;;
19942;SDS011;10133;50.956;17.276;2023-02-28T01:10:41;23.37;;;11.80;;
19942;SDS011;10133;50.956;17.276;2023-02-28T01:13:08;23.10;;;10.97;;
19942;SDS011;10133;50.956;17.276;2023-02-28T01:15:35;26.23;;;12.37;;
19942;SDS011;10133;50.956;17.276;2023-02-28T01:18:03;19.90;;;10.87;;
19942;SDS011;10133;50.956;17.276;2023-02-28T01:20:29;21.07;;;10.37;;
19942;SDS011;10133;50.956;17.276;2023-02-28T01:22:56;20.93;;;11.10;;
19942;SDS011;10133;50.956;17.276;2023-02-28T01:25:23;20.47;;;11.10;;
19942;SDS011;10133;50.956;17.276;2023-02-28T01:27:50;23.07;;;11.20;;
19942;SDS011;10133;50.956;17.276;2023-02-28T01:30:17;18.80;;;10.50;;
19942;SDS011;10133;50.956;17.276;2023-02-28T01:32:44;23.50;;;11.33;;
19942;SDS011;10133;50.956;17.276;2023-02-28T01:35:11;24.30;;;12.00;;
19942;SDS011;10133;50.956;17.276;2023-02-28T01:37:38;25.70;;;12.67;;
19942;SDS011;10133;50.956;17.276;2023-02-28T01:40:05;23.37;;;11.57;;
19942;SDS011;10133;50.956;17.276;2023-02-28T01:42:32;21.70;;;12.10;;
19942;SDS011;10133;50.956;17.276;2023-02-28T01:45:04;24.60;;;12.40;;
19942;SDS011;10133;50.956;17.276;2023-02-28T01:47:48;25.67;;;12.27;;
19942;SDS011;10133;50.956;17.276;2023-02-28T01:50:19;25.73;;;12.80;;
19942;SDS011;10133;50.956;17.276;2023-02-28T01:52:48;26.53;;;13.07;;
19942;SDS011;10133;50.956;17.276;2023-02-28T01:55:16;27.23;;;13.77;;
19942;SDS011;10133;50.956;17.276;2023-02-28T01:57:46;32.57;;;14.90;;
19942;SDS011;10133;50.956;17.276;2023-02-28T02:00:18;34.63;;;15.70;;
19942;SDS011;10133;50.956;17.276;2023-02-28T02:02:49;34.07;;;15.93;;
19942;SDS011;10133;50.956;17.276;2023-02-28T02:05:20;33.80;;;15.50;;
19942;SDS011;10133;50.956;17.276;2023-02-28T02:07:49;28.23;;;13.47;;
19942;SDS011;10133;50.956;17.276;2023-02-28T02:10:19;28.07;;;13.30;;
19942;SDS011;10133;50.956;17.276;2023-02-28T02:26:43;19.60;;;9.53;;
19942;SDS011;10133;50.956;17.276;2023-02-28T02:37:56;15.77;;;8.60;;
19942;SDS011;10133;50.956;17.276;2023-02-28T02:46:12;14.13;;;7.67;;
19942;SDS011;10133;50.956;17.276;2023-02-28T02:48:46;23.33;;;9.80;;
19942;SDS011;10133;50.956;17.276;2023-02-28T02:51:16;17.53;;;9.60;;
19942;SDS011;10133;50.956;17.276;2023-02-28T02:53:48;17.93;;;9.27;;
19942;SDS011;10133;50.956;17.276;2023-02-28T02:56:29;22.43;;;9.97;;
19942;SDS011;10133;50.956;17.276;2023-02-28T02:59:00;22.13;;;9.93;;
19942;SDS011;10133;50.956;17.276;2023-02-28T03:01:31;21.33;;;9.40;;
19942;SDS011;10133;50.956;17.276;2023-02-28T03:04:01;18.83;;;9.90;;
19942;SDS011;10133;50.956;17.276;2023-02-28T03:06:32;18.37;;;8.83;;
19942;SDS011;10133;50.956;17.276;2023-02-28T03:08:59;15.83;;;9.40;;
19942;SDS011;10133;50.956;17.276;2023-02-28T03:11:27;18.27;;;9.63;;
19942;SDS011;10133;50.956;17.276;2023-02-28T03:14:32;19.80;;;9.80;;
19942;SDS011;10133;50.956;17.276;2023-02-28T03:23:02;17.40;;;9.10;;
19942;SDS011;10133;50.956;17.276;2023-02-28T03:28:40;16.97;;;9.33;;
19942;SDS011;10133;50.956;17.276;2023-02-28T03:31:21;19.63;;;10.17;;
19942;SDS011;10133;50.956;17.276;2023-02-28T03:34:10;20.33;;;10.23;;
19942;SDS011;10133;50.956;17.276;2023-02-28T03:36:51;23.03;;;10.40;;
19942;SDS011;10133;50.956;17.276;2023-02-28T03:39:34;23.23;;;10.77;;
19942;SDS011;10133;50.956;17.276;2023-02-28T03:42:07;23.37;;;11.80;;
19942;SDS011;10133;50.956;17.276;2023-02-28T03:44:42;30.37;;;16.27;;
19942;SDS011;10133;50.956;17.276;2023-02-28T03:47:13;24.90;;;12.57;;
19942;SDS011;10133;50.956;17.276;2023-02-28T03:49:56;22.93;;;11.90;;
19942;SDS011;10133;50.956;17.276;2023-02-28T03:52:31;30.63;;;14.60;;
19942;SDS011;10133;50.956;17.276;2023-02-28T03:55:03;30.20;;;14.03;;
19942;SDS011;10133;50.956;17.276;2023-02-28T04:00:29;26.90;;;12.80;;
19942;SDS011;10133;50.956;17.276;2023-02-28T04:03:01;24.20;;;12.30;;
19942;SDS011;10133;50.956;17.276;2023-02-28T04:05:28;22.67;;;11.53;;
19942;SDS011;10133;50.956;17.276;2023-02-28T04:08:06;24.37;;;11.93;;
19942;SDS011;10133;50.956;17.276;2023-02-28T04:10:34;21.83;;;11.37;;
19942;SDS011;10133;50.956;17.276;2023-02-28T04:13:01;21.40;;;11.43;;
19942;SDS011;10133;50.956;17.276;2023-02-28T04:15:28;39.37;;;17.23;;
19942;SDS011;10133;50.956;17.276;2023-02-28T04:17:55;25.23;;;12.93;;
19942;SDS011;10133;50.956;17.276;2023-02-28T04:20:21;25.33;;;11.37;;
19942;SDS011;10133;50.956;17.276;2023-02-28T04:22:48;24.27;;;12.00;;
19942;SDS011;10133;50.956;17.276;2023-02-28T04:25:15;28.67;;;13.23;;
19942;SDS011;10133;50.956;17.276;2023-02-28T04:27:42;29.40;;;14.23;;
19942;SDS011;10133;50.956;17.276;2023-02-28T04:30:10;29.23;;;13.70;;
19942;SDS011;10133;50.956;17.276;2023-02-28T04:32:38;30.40;;;14.63;;
19942;SDS011;10133;50.956;17.276;2023-02-28T04:35:05;30.43;;;16.30;;
19942;SDS011;10133;50.956;17.276;2023-02-28T04:37:32;33.47;;;16.77;;
19942;SDS011;10133;50.956;17.276;2023-02-28T04:40:01;33.33;;;15.97;;
19942;SDS011;10133;50.956;17.276;2023-02-28T04:42:29;48.77;;;18.63;;
19942;SDS011;10133;50.956;17.276;2023-02-28T04:45:02;74.63;;;25.87;;
19942;SDS011;10133;50.956;17.276;2023-02-28T04:47:29;99.43;;;30.80;;
19942;SDS011;10133;50.956;17.276;2023-02-28T04:49:58;88.93;;;25.37;;
19942;SDS011;10133;50.956;17.276;2023-02-28T04:52:25;94.97;;;29.67;;
19942;SDS011;10133;50.956;17.276;2023-02-28T04:54:54;103.00;;;29.60;;
19942;SDS011;10133;50.956;17.276;2023-02-28T04:57:21;77.50;;;24.80;;
19942;SDS011;10133;50.956;17.276;2023-02-28T04:59:48;64.00;;;22.20;;
19942;SDS011;10133;50.956;17.276;2023-02-28T05:02:15;75.33;;;22.77;;
19942;SDS011;10133;50.956;17.276;2023-02-28T05:04:41;64.47;;;21.43;;
19942;SDS011;10133;50.956;17.276;2023-02-28T05:07:08;46.47;;;17.77;;
19942;SDS011;10133;50.956;17.276;2023-02-28T05:09:36;40.20;;;15.57;;
19942;SDS011;10133;50.956;17.276;2023-02-28T05:12:02;40.40;;;15.60;;
19942;SDS011;10133;50.956;17.276;2023-02-28T05:14:29;38.47;;;14.80;;
19942;SDS011;10133;50.956;17.276;2023-02-28T05:16:56;39.20;;;14.20;;
19942;SDS011;10133;50.956;17.276;2023-02-28T05:19:23;36.93;;;16.90;;
19942;SDS011;10133;50.956;17.276;2023-02-28T05:21:51;44.43;;;18.17;;
19942;SDS011;10133;50.956;17.276;2023-02-28T05:24:20;45.27;;;20.13;;
19942;SDS011;10133;50.956;17.276;2023-02-28T05:26:51;44.80;;;19.90;;
19942;SDS011;10133;50.956;17.276;2023-02-28T05:29:19;64.10;;;26.57;;
19942;SDS011;10133;50.956;17.276;2023-02-28T05:31:46;70.77;;;27.27;;
19942;SDS011;10133;50.956;17.276;2023-02-28T05:34:13;88.47;;;30.90;;
19942;SDS011;10133;50.956;17.276;2023-02-28T05:36:41;95.67;;;33.97;;
19942;SDS011;10133;50.956;17.276;2023-02-28T05:39:08;96.17;;;34.50;;
19942;SDS011;10133;50.956;17.276;2023-02-28T05:41:40;88.77;;;31.30;;
19942;SDS011;10133;50.956;17.276;2023-02-28T05:44:08;66.43;;;23.90;;
19942;SDS011;10133;50.956;17.276;2023-02-28T05:46:36;52.37;;;20.33;;
19942;SDS011;10133;50.956;17.276;2023-02-28T05:49:03;54.40;;;22.60;;
19942;SDS011;10133;50.956;17.276;2023-02-28T05:51:30;49.50;;;22.13;;
19942;SDS011;10133;50.956;17.276;2023-02-28T05:54:00;41.57;;;19.77;;
19942;SDS011;10133;50.956;17.276;2023-02-28T05:56:27;41.13;;;19.43;;
19942;SDS011;10133;50.956;17.276;2023-02-28T05:58:55;74.83;;;28.50;;
19942;SDS011;10133;50.956;17.276;2023-02-28T06:01:35;111.07;;;41.20;;
19942;SDS011;10133;50.956;17.276;2023-02-28T06:04:06;157.03;;;54.77;;
19942;SDS011;10133;50.956;17.276;2023-02-28T06:06:47;251.43;;;91.93;;
19942;SDS011;10133;50.956;17.276;2023-02-28T06:09:15;219.23;;;74.17;;
19942;SDS011;10133;50.956;17.276;2023-02-28T06:11:43;171.33;;;58.27;;
19942;SDS011;10133;50.956;17.276;2023-02-28T06:14:14;119.53;;;40.07;;
19942;SDS011;10133;50.956;17.276;2023-02-28T06:16:43;83.50;;;30.77;;
19942;SDS011;10133;50.956;17.276;2023-02-28T06:19:10;59.83;;;23.07;;
19942;SDS011;10133;50.956;17.276;2023-02-28T06:21:37;46.87;;;18.97;;
19942;SDS011;10133;50.956;17.276;2023-02-28T06:24:04;39.50;;;16.37;;
19942;SDS011;10133;50.956;17.276;2023-02-28T06:26:32;50.43;;;19.77;;
19942;SDS011;10133;50.956;17.276;2023-02-28T06:28:58;76.33;;;24.53;;
19942;SDS011;10133;50.956;17.276;2023-02-28T06:31:27;68.30;;;25.13;;
19942;SDS011;10133;50.956;17.276;2023-02-28T06:33:55;76.70;;;26.00;;
19942;SDS011;10133;50.956;17.276;2023-02-28T06:36:22;70.13;;;23.77;;
19942;SDS011;10133;50.956;17.276;2023-02-28T06:38:49;72.30;;;23.73;;
19942;SDS011;10133;50.956;17.276;2023-02-28T06:41:24;283.23;;;78.13;;
19942;SDS011;10133;50.956;17.276;2023-02-28T06:43:52;221.43;;;62.00;;
19942;SDS011;10133;50.956;17.276;2023-02-28T06:46:19;163.30;;;48.67;;
19942;SDS011;10133;50.956;17.276;2023-02-28T06:48:46;150.07;;;42.80;;
19942;SDS011;10133;50.956;17.276;2023-02-28T06:51:15;135.57;;;37.17;;
19942;SDS011;10133;50.956;17.276;2023-02-28T06:53:48;113.70;;;35.17;;
19942;SDS011;10133;50.956;17.276;2023-02-28T06:56:16;81.77;;;27.20;;
19942;SDS011;10133;50.956;17.276;2023-02-28T06:58:50;57.97;;;22.03;;
19942;SDS011;10133;50.956;17.276;2023-02-28T07:01:19;52.77;;;20.63;;
19942;SDS011;10133;50.956;17.276;2023-02-28T07:03:46;53.10;;;21.23;;
19942;SDS011;10133;50.956;17.276;2023-02-28T07:06:18;79.03;;;27.53;;
19942;SDS011;10133;50.956;17.276;2023-02-28T07:08:46;70.03;;;25.90;;
19942;SDS011;10133;50.956;17.276;2023-02-28T07:11:13;73.17;;;26.80;;
19942;SDS011;10133;50.956;17.276;2023-02-28T07:13:40;71.47;;;26.47;;
19942;SDS011;10133;50.956;17.276;2023-02-28T07:16:09;59.07;;;27.73;;
19942;SDS011;10133;50.956;17.276;2023-02-28T07:18:37;69.57;;;32.17;;
19942;SDS011;10133;50.956;17.276;2023-02-28T07:21:05;63.37;;;30.47;;
19942;SDS011;10133;50.956;17.276;2023-02-28T07:23:34;68.20;;;33.13;;
19942;SDS011;10133;50.956;17.276;2023-02-28T07:26:01;52.57;;;26.23;;
19942;SDS011;10133;50.956;17.276;2023-02-28T07:28:28;51.03;;;29.47;;
19942;SDS011;10133;50.956;17.276;2023-02-28T07:30:55;46.60;;;24.00;;
19942;SDS011;10133;50.956;17.276;2023-02-28T07:33:22;38.63;;;21.73;;
19942;SDS011;10133;50.956;17.276;2023-02-28T07:35:50;38.27;;;20.70;;
19942;SDS011;10133;50.956;17.276;2023-02-28T07:38:17;30.40;;;17.87;;
19942;SDS011;10133;50.956;17.276;2023-02-28T07:40:44;17.20;;;11.45;;
19942;SDS011;10133;50.956;17.276;2023-02-28T07:43:11;15.93;;;10.73;;
19942;SDS011;10133;50.956;17.276;2023-02-28T07:45:38;12.38;;;8.38;;
19942;SDS011;10133;50.956;17.276;2023-02-28T07:48:05;15.52;;;10.40;;
19942;SDS011;10133;50.956;17.276;2023-02-28T07:50:31;22.85;;;10.30;;
19942;SDS011;10133;50.956;17.276;2023-02-28T07:52:58;16.23;;;9.32;;
19942;SDS011;10133;50.956;17.276;2023-02-28T07:55:25;20.05;;;11.05;;
19942;SDS011;10133;50.956;17.276;2023-02-28T07:57:53;19.35;;;10.30;;
19942;SDS011;10133;50.956;17.276;2023-02-28T08:00:20;25.30;;;13.05;;
19942;SDS011;10133;50.956;17.276;2023-02-28T08:02:48;16.23;;;9.88;;
19942;SDS011;10133;50.956;17.276;2023-02-28T08:05:15;11.32;;;7.13;;
19942;SDS011;10133;50.956;17.276;2023-02-28T08:07:45;10.45;;;7.10;;
19942;SDS011;10133;50.956;17.276;2023-02-28T08:10:13;11.80;;;8.52;;
19942;SDS011;10133;50.956;17.276;2023-02-28T08:12:41;18.60;;;10.68;;
19942;SDS011;10133;50.956;17.276;2023-02-28T08:15:08;15.52;;;10.18;;
19942;SDS011;10133;50.956;17.276;2023-02-28T08:17:35;16.23;;;11.10;;
19942;SDS011;10133;50.956;17.276;2023-02-28T08:20:02;39.10;;;16.95;;
19942;SDS011;10133;50.956;17.276;2023-02-28T08:22:30;9.27;;;6.72;;
19942;SDS011;10133;50.956;17.276;2023-02-28T08:24:57;14.70;;;8.57;;
19942;SDS011;10133;50.956;17.276;2023-02-28T08:27:24;8.10;;;6.40;;
19942;SDS011;10133;50.956;17.276;2023-02-28T08:29:51;14.38;;;7.80;;
19942;SDS011;10133;50.956;17.276;2023-02-28T08:32:18;12.27;;;8.13;;
19942;SDS011;10133;50.956;17.276;2023-02-28T08:34:55;14.10;;;8.50;;
19942;SDS011;10133;50.956;17.276;2023-02-28T08:37:22;9.55;;;7.97;;
19942;SDS011;10133;50.956;17.276;2023-02-28T08:39:49;9.88;;;7.32;;
19942;SDS011;10133;50.956;17.276;2023-02-28T08:42:19;64.55;;;43.70;;
19942;SDS011;10133;50.956;17.276;2023-02-28T08:44:47;21.50;;;15.13;;
19942;SDS011;10133;50.956;17.276;2023-02-28T08:47:13;26.38;;;15.52;;
19942;SDS011;10133;50.956;17.276;2023-02-28T08:49:40;59.83;;;26.55;;
19942;SDS011;10133;50.956;17.276;2023-02-28T08:52:07;29.45;;;16.23;;
19942;SDS011;10133;50.956;17.276;2023-02-28T08:54:35;14.77;;;9.43;;
19942;SDS011;10133;50.956;17.276;2023-02-28T08:57:02;8.05;;;6.95;;
19942;SDS011;10133;50.956;17.276;2023-02-28T08:59:30;7.18;;;6.32;;
19942;SDS011;10133;50.956;17.276;2023-02-28T09:01:57;8.80;;;7.13;;
19942;SDS011;10133;50.956;17.276;2023-02-28T09:04:23;7.80;;;6.53;;
19942;SDS011;10133;50.956;17.276;2023-02-28T09:06:51;6.88;;;5.88;;
19942;SDS011;10133;50.956;17.276;2023-02-28T09:09:17;7.70;;;6.47;;
19942;SDS011;10133;50.956;17.276;2023-02-28T09:11:44;7.75;;;5.90;;
19942;SDS011;10133;50.956;17.276;2023-02-28T09:14:11;7.20;;;6.28;;
19942;SDS011;10133;50.956;17.276;2023-02-28T09:16:38;7.70;;;6.22;;
19942;SDS011;10133;50.956;17.276;2023-02-28T09:19:05;7.72;;;6.57;;
19942;SDS011;10133;50.956;17.276;2023-02-28T09:21:32;8.35;;;6.38;;
19942;SDS011;10133;50.956;17.276;2023-02-28T09:23:59;45.13;;;24.30;;
19942;SDS011;10133;50.956;17.276;2023-02-28T09:26:26;72.95;;;39.33;;
19942;SDS011;10133;50.956;17.276;2023-02-28T09:29:07;60.80;;;39.47;;
19942;SDS011;10133;50.956;17.276;2023-02-28T09:31:35;17.45;;;13.30;;
19942;SDS011;10133;50.956;17.276;2023-02-28T09:34:03;12.30;;;8.55;;
19942;SDS011;10133;50.956;17.276;2023-02-28T09:36:30;7.22;;;6.53;;
19942;SDS011;10133;50.956;17.276;2023-02-28T09:39:10;8.20;;;6.88;;
19942;SDS011;10133;50.956;17.276;2023-02-28T09:41:40;11.18;;;6.88;;
19942;SDS011;10133;50.956;17.276;2023-02-28T09:44:30;7.45;;;6.43;;
19942;SDS011;10133;50.956;17.276;2023-02-28T09:47:11;10.85;;;8.57;;
19942;SDS011;10133;50.956;17.276;2023-02-28T09:49:53;9.30;;;7.88;;
19942;SDS011;10133;50.956;17.276;2023-02-28T09:52:26;6.45;;;5.85;;
19942;SDS011;10133;50.956;17.276;2023-02-28T09:55:00;6.55;;;5.68;;
19942;SDS011;10133;50.956;17.276;2023-02-28T09:57:45;10.68;;;8.13;;
19942;SDS011;10133;50.956;17.276;2023-02-28T10:05:43;16.60;;;10.48;;
19942;SDS011;10133;50.956;17.276;2023-02-28T10:08:24;9.55;;;8.10;;
19942;SDS011;10133;50.956;17.276;2023-02-28T10:10:56;171.75;;;133.88;;
19942;SDS011;10133;50.956;17.276;2023-02-28T10:13:31;15.23;;;11.48;;
19942;SDS011;10133;50.956;17.276;2023-02-28T10:16:06;6.80;;;5.72;;
19942;SDS011;10133;50.956;17.276;2023-02-28T10:18:40;10.93;;;7.65;;
19942;SDS011;10133;50.956;17.276;2023-02-28T10:21:30;9.57;;;7.68;;
19942;SDS011;10133;50.956;17.276;2023-02-28T10:24:09;6.65;;;6.05;;
19942;SDS011;10133;50.956;17.276;2023-02-28T10:26:45;6.47;;;5.82;;
19942;SDS011;10133;50.956;17.276;2023-02-28T10:29:14;6.65;;;5.93;;
19942;SDS011;10133;50.956;17.276;2023-02-28T10:31:41;7.72;;;6.40;;
19942;SDS011;10133;50.956;17.276;2023-02-28T10:34:10;7.57;;;6.20;;
19942;SDS011;10133;50.956;17.276;2023-02-28T10:36:39;6.65;;;5.40;;
19942;SDS011;10133;50.956;17.276;2023-02-28T10:42:00;6.03;;;5.43;;
19942;SDS011;10133;50.956;17.276;2023-02-28T10:44:27;7.28;;;5.75;;
19942;SDS011;10133;50.956;17.276;2023-02-28T10:46:54;6.38;;;5.65;;
19942;SDS011;10133;50.956;17.276;2023-02-28T10:49:23;6.75;;;5.75;;
19942;SDS011;10133;50.956;17.276;2023-02-28T10:51:56;6.45;;;5.85;;
19942;SDS011;10133;50.956;17.276;2023-02-28T10:54:34;6.40;;;5.80;;
19942;SDS011;10133;50.956;17.276;2023-02-28T10:59:45;6.25;;;5.65;;
19942;SDS011;10133;50.956;17.276;2023-02-28T11:08:17;9.65;;;5.85;;
19942;SDS011;10133;50.956;17.276;2023-02-28T11:10:46;6.15;;;5.53;;
19942;SDS011;10133;50.956;17.276;2023-02-28T11:13:18;6.22;;;5.65;;
19942;SDS011;10133;50.956;17.276;2023-02-28T11:15:55;6.72;;;6.00;;
19942;SDS011;10133;50.956;17.276;2023-02-28T11:18:27;7.00;;;5.80;;
19942;SDS011;10133;50.956;17.276;2023-02-28T11:20:59;6.80;;;5.82;;
19942;SDS011;10133;50.956;17.276;2023-02-28T11:23:28;6.13;;;5.53;;
19942;SDS011;10133;50.956;17.276;2023-02-28T11:25:59;7.63;;;6.40;;
19942;SDS011;10133;50.956;17.276;2023-02-28T11:28:32;7.10;;;6.07;;
19942;SDS011;10133;50.956;17.276;2023-02-28T11:33:29;7.07;;;5.90;;
19942;SDS011;10133;50.956;17.276;2023-02-28T11:36:21;8.65;;;6.07;;
19942;SDS011;10133;50.956;17.276;2023-02-28T11:38:59;7.22;;;5.80;;
19942;SDS011;10133;50.956;17.276;2023-02-28T11:41:37;7.82;;;5.82;;
19942;SDS011;10133;50.956;17.276;2023-02-28T11:49:52;8.27;;;5.80;;
19942;SDS011;10133;50.956;17.276;2023-02-28T12:17:43;10.97;;;7.00;;
19942;SDS011;10133;50.956;17.276;2023-02-28T12:28:46;10.93;;;7.10;;
19942;SDS011;10133;50.956;17.276;2023-02-28T12:31:18;10.60;;;6.50;;
19942;SDS011;10133;50.956;17.276;2023-02-28T12:34:33;10.53;;;6.97;;
19942;SDS011;10133;50.956;17.276;2023-02-28T12:36:44;10.43;;;6.77;;
19942;SDS011;10133;50.956;17.276;2023-02-28T12:39:19;9.83;;;6.67;;
19942;SDS011;10133;50.956;17.276;2023-02-28T12:42:03;8.93;;;6.30;;
19942;SDS011;10133;50.956;17.276;2023-02-28T12:44:40;9.63;;;7.10;;
19942;SDS011;10133;50.956;17.276;2023-02-28T12:47:14;11.80;;;6.63;;
19942;SDS011;10133;50.956;17.276;2023-02-28T12:52:20;14.80;;;8.27;;
19942;SDS011;10133;50.956;17.276;2023-02-28T13:00:16;10.17;;;6.73;;
19942;SDS011;10133;50.956;17.276;2023-02-28T13:05:49;14.70;;;7.67;;
19942;SDS011;10133;50.956;17.276;2023-02-28T13:11:51;12.53;;;7.40;;
19942;SDS011;10133;50.956;17.276;2023-02-28T13:19:40;21.27;;;10.70;;
19942;SDS011;10133;50.956;17.276;2023-02-28T13:23:04;12.77;;;7.30;;
19942;SDS011;10133;50.956;17.276;2023-02-28T13:27:50;11.40;;;7.00;;
19942;SDS011;10133;50.956;17.276;2023-02-28T13:38:59;15.23;;;8.00;;
19942;SDS011;10133;50.956;17.276;2023-02-28T13:44:20;10.57;;;6.80;;
19942;SDS011;10133;50.956;17.276;2023-02-28T13:51:50;20.03;;;12.13;;
19942;SDS011;10133;50.956;17.276;2023-02-28T13:57:43;23.27;;;12.17;;
19942;SDS011;10133;50.956;17.276;2023-02-28T14:08:52;20.60;;;12.43;;
19942;SDS011;10133;50.956;17.276;2023-02-28T14:11:33;20.07;;;12.83;;
19942;SDS011;10133;50.956;17.276;2023-02-28T14:14:02;23.80;;;12.73;;
19942;SDS011;10133;50.956;17.276;2023-02-28T14:16:36;22.30;;;13.17;;
19942;SDS011;10133;50.956;17.276;2023-02-28T14:19:14;25.33;;;13.83;;
19942;SDS011;10133;50.956;17.276;2023-02-28T14:32:35;28.07;;;15.67;;
19942;SDS011;10133;50.956;17.276;2023-02-28T14:35:20;25.03;;;14.87;;
19942;SDS011;10133;50.956;17.276;2023-02-28T14:37:48;28.50;;;14.50;;
19942;SDS011;10133;50.956;17.276;2023-02-28T14:40:17;28.43;;;15.37;;
19942;SDS011;10133;50.956;17.276;2023-02-28T14:42:59;25.87;;;15.17;;
19942;SDS011;10133;50.956;17.276;2023-02-28T14:45:29;27.37;;;15.03;;
19942;SDS011;10133;50.956;17.276;2023-02-28T14:47:58;28.43;;;14.83;;
19942;SDS011;10133;50.956;17.276;2023-02-28T14:50:31;29.20;;;14.33;;
19942;SDS011;10133;50.956;17.276;2023-02-28T14:53:03;26.93;;;14.73;;
19942;SDS011;10133;50.956;17.276;2023-02-28T14:55:34;27.50;;;14.30;;
19942;SDS011;10133;50.956;17.276;2023-02-28T14:58:03;28.27;;;16.03;;
19942;SDS011;10133;50.956;17.276;2023-02-28T15:00:33;27.13;;;14.83;;
19942;SDS011;10133;50.956;17.276;2023-02-28T15:03:17;32.73;;;15.17;;
19942;SDS011;10133;50.956;17.276;2023-02-28T15:08:19;26.97;;;13.97;;
19942;SDS011;10133;50.956;17.276;2023-02-28T15:10:54;26.33;;;14.03;;
19942;SDS011;10133;50.956;17.276;2023-02-28T15:13:31;28.10;;;14.83;;
19942;SDS011;10133;50.956;17.276;2023-02-28T15:16:11;28.87;;;13.80;;
19942;SDS011;10133;50.956;17.276;2023-02-28T15:18:53;29.83;;;14.20;;
19942;SDS011;10133;50.956;17.276;2023-02-28T15:21:28;25.73;;;13.97;;
19942;SDS011;10133;50.956;17.276;2023-02-28T15:26:39;25.87;;;14.37;;
19942;SDS011;10133;50.956;17.276;2023-02-28T15:29:15;28.43;;;13.87;;
19942;SDS011;10133;50.956;17.276;2023-02-28T15:31:58;24.90;;;14.07;;
19942;SDS011;10133;50.956;17.276;2023-02-28T15:34:38;25.40;;;13.43;;
19942;SDS011;10133;50.956;17.276;2023-02-28T15:40:23;26.20;;;13.77;;
19942;SDS011;10133;50.956;17.276;2023-02-28T15:43:05;24.50;;;13.13;;
19942;SDS011;10133;50.956;17.276;2023-02-28T15:45:35;23.70;;;12.83;;
19942;SDS011;10133;50.956;17.276;2023-02-28T15:51:32;20.87;;;12.03;;
19942;SDS011;10133;50.956;17.276;2023-02-28T15:54:04;26.83;;;12.33;;
19942;SDS011;10133;50.956;17.276;2023-02-28T15:56:35;21.23;;;10.63;;
19942;SDS011;10133;50.956;17.276;2023-02-28T15:59:23;18.20;;;10.83;;
19942;SDS011;10133;50.956;17.276;2023-02-28T16:04:36;19.13;;;9.83;;
19942;SDS011;10133;50.956;17.276;2023-02-28T16:07:04;19.73;;;9.37;;
19942;SDS011;10133;50.956;17.276;2023-02-28T16:09:32;21.40;;;9.73;;
19942;SDS011;10133;50.956;17.276;2023-02-28T16:12:01;14.50;;;8.83;;
19942;SDS011;10133;50.956;17.276;2023-02-28T16:14:29;22.47;;;10.03;;
19942;SDS011;10133;50.956;17.276;2023-02-28T16:17:02;20.67;;;10.37;;
19942;SDS011;10133;50.956;17.276;2023-02-28T16:19:30;21.97;;;11.00;;
19942;SDS011;10133;50.956;17.276;2023-02-28T16:21:59;17.07;;;9.33;;
19942;SDS011;10133;50.956;17.276;2023-02-28T16:24:27;20.67;;;10.47;;
19942;SDS011;10133;50.956;17.276;2023-02-28T16:26:54;20.03;;;9.77;;
19942;SDS011;10133;50.956;17.276;2023-02-28T16:29:24;21.50;;;10.53;;
19942;SDS011;10133;50.956;17.276;2023-02-28T16:31:56;21.73;;;10.43;;
19942;SDS011;10133;50.956;17.276;2023-02-28T16:34:23;23.27;;;9.60;;
19942;SDS011;10133;50.956;17.276;2023-02-28T16:36:51;17.60;;;8.13;;
19942;SDS011;10133;50.956;17.276;2023-02-28T16:39:18;23.03;;;12.60;;
19942;SDS011;10133;50.956;17.276;2023-02-28T16:41:48;25.93;;;12.63;;
19942;SDS011;10133;50.956;17.276;2023-02-28T16:46:52;18.10;;;9.80;;
19942;SDS011;10133;50.956;17.276;2023-02-28T16:49:19;18.17;;;8.47;;
19942;SDS011;10133;50.956;17.276;2023-02-28T16:51:47;25.63;;;9.83;;
19942;SDS011;10133;50.956;17.276;2023-02-28T16:54:14;41.87;;;14.97;;
19942;SDS011;10133;50.956;17.276;2023-02-28T16:56:42;77.00;;;22.77;;
19942;SDS011;10133;50.956;17.276;2023-02-28T16:59:11;92.10;;;25.67;;
19942;SDS011;10133;50.956;17.276;2023-02-28T17:01:38;350.47;;;82.60;;
19942;SDS011;10133;50.956;17.276;2023-02-28T17:04:06;545.87;;;128.27;;
19942;SDS011;10133;50.956;17.276;2023-02-28T17:06:34;384.77;;;77.50;;
19942;SDS011;10133;50.956;17.276;2023-02-28T17:09:02;295.57;;;60.60;;
19942;SDS011;10133;50.956;17.276;2023-02-28T17:11:29;143.73;;;40.13;;
19942;SDS011;10133;50.956;17.276;2023-02-28T17:13:56;131.23;;;38.50;;
19942;SDS011;10133;50.956;17.276;2023-02-28T17:18:58;301.47;;;79.53;;
19942;SDS011;10133;50.956;17.276;2023-02-28T17:21:27;241.53;;;68.30;;
19942;SDS011;10133;50.956;17.276;2023-02-28T17:23:54;310.97;;;80.80;;
19942;SDS011;10133;50.956;17.276;2023-02-28T17:26:22;223.27;;;63.40;;
19942;SDS011;10133;50.956;17.276;2023-02-28T17:28:57;227.13;;;62.97;;
19942;SDS011;10133;50.956;17.276;2023-02-28T17:31:25;262.83;;;73.77;;
19942;SDS011;10133;50.956;17.276;2023-02-28T17:33:53;246.13;;;72.33;;